SMJPSOCA

Guest
Details From SMJP - Paramaribo Johan A Pengel Intl
To SOCA - Cayenne Rochambeau
Flight Number -
Tags decoded
Created
Modified
Stats Distance 173 nm / 321 km
Max Altitude 0 ft / 0 m
Waypoints 2
Social Downloads 1
Likes 0
Share VATSIM

Download

Looking for another format? Having issues loading an existing format? Contact us
Advertisement - Login to hide

Notes

Requested: SMJP D100K GAVOT SOCA Unmatched points: D100K GAVOT

Route

SMJP SOCA

ID Type Via Altitude (ft/m) Position (lat/lon) Dist (leg/tot) Name
O SMJP APT - 0 / 0 5.45283 / -55.18778 - / 0 nm Paramaribo Johan A Pengel Intl
O SOCA APT - 0 / 0 4.81981 / -52.36045 173 / 173 nm Cayenne Rochambeau

Altitude Profile

Advertisement - Login to hide

Weather


0- 5 10 15 20 25 30 35+ Temperature / °C

Clouds and Precipitation
Forecast for 2019-11-20 06:00 UTC. Updated 3 minutes ago

Ground ~20,000 ft ~40,000 ft Winds

SMJP

Details ICAO SMJP (PBM)
Name Johan Adolf Pengel Intl
Region Suriname
Timezone America/Paramaribo (UTC-3.0)
Stats Elevation 59 ft / 18 m (AMSL)
Location 5.452850° -55.187800°
Runways 1
Magnetic Variation 17.621° W

METAR

SMJP 200300Z 09003KT CAVOK 26/24 Q1012 NOSIG

Decode

TAF

TAF TAF SMJP 192200Z 2000/2024 09004KT 9999 FEW030 TX33/2018Z TN23/2009Z BECMG 2008/2010 00000KT 0800 FG BKN001 FM201100 10006KT 9999 SCT015 TEMPO 2015/2021 4000 SHRA FEW015CB SCT018

Decode

Departure Runways

ID Width Length Bearing (true/mag) Surface Threshold Overrun Markings Lighting
11 151 ft / 46 m 11,428 ft / 3,483 m 89.69° / 107.31° ASPHALT 0 ft / 0 m 230 ft / 70 m PREC-APP EDGE THRESHOLD MALSF REIL-OMNI
29 151 ft / 46 m 11,428 ft / 3,483 m 269.69° / 287.31° ASPHALT 0 ft / 0 m 197 ft / 60 m APP EDGE THRESHOLD MALSF REIL-OMNI

SOCA

Details ICAO SOCA (CAY)
Name Cayenne, Felix Eboue Intl
Region French Guiana
Timezone America/Cayenne (UTC-3.0)
Stats Elevation 25 ft / 8 m (AMSL)
Location 4.820030° -52.361100°
Runways 1
Magnetic Variation 18.427° W

METAR

SOCA 200330Z AUTO 23003KT CAVOK 25/24 Q1011 BECMG 08010KT

Decode

TAF

TAF SOCA 192200Z 2000/2024 08010KT 9999 SCT033 PROB40 TEMPO 2006/2018 4000 SHRA SCT012TCU BECMG 2022/2023 VRB02KT

Decode

Destination Runways

ID Width Length Bearing (true/mag) Surface Threshold Overrun Markings Lighting
08 148 ft / 45 m 10,489 ft / 3,197 m 65.20° / 83.63° ASPHALT 0 ft / 0 m 0 ft / 0 m PREC-APP CENTERLINE EDGE THRESHOLD MALSR TDZ REIL-OMNI
26 148 ft / 45 m 10,489 ft / 3,197 m 245.20° / 263.63° ASPHALT 0 ft / 0 m 0 ft / 0 m APP CENTERLINE EDGE THRESHOLD REIL-OMNI

Popular Alternatives